createdAt,value
2023-05-22T00:00:13.528Z,99.90
2023-05-22T00:02:43.634Z,99.90
2023-05-22T00:05:18.586Z,99.90
2023-05-22T00:07:49.152Z,99.90
2023-05-22T00:10:17.472Z,99.90
2023-05-22T00:12:46.748Z,99.90
2023-05-22T00:15:15.467Z,99.90
2023-05-22T00:17:44.538Z,99.90
2023-05-22T00:20:13.595Z,99.90
2023-05-22T00:22:54.692Z,99.90
2023-05-22T00:25:22.898Z,99.90
2023-05-22T00:27:51.293Z,99.90
2023-05-22T00:30:19.615Z,99.90
2023-05-22T00:32:50.097Z,99.90
2023-05-22T00:35:18.487Z,99.90
2023-05-22T00:37:48.211Z,99.90
2023-05-22T00:40:16.758Z,99.90
2023-05-22T00:42:46.374Z,99.90
2023-05-22T00:45:15.758Z,99.90
2023-05-22T00:47:46.510Z,99.90
2023-05-22T00:50:19.548Z,99.90
2023-05-22T00:52:49.149Z,99.90
2023-05-22T00:55:17.974Z,99.90
2023-05-22T00:57:47.111Z,99.90
2023-05-22T01:00:16.960Z,99.90
2023-05-22T01:02:48.403Z,99.90
2023-05-22T01:05:18.421Z,99.90
2023-05-22T01:07:50.283Z,99.90
2023-05-22T01:10:22.208Z,99.90
2023-05-22T01:13:02.097Z,99.90
2023-05-22T01:15:37.165Z,99.90
2023-05-22T01:18:21.661Z,99.90
2023-05-22T01:20:58.570Z,99.90
2023-05-22T01:24:00.438Z,99.90
2023-05-22T01:27:04.898Z,99.90
2023-05-22T01:29:46.324Z,99.90
2023-05-22T01:32:21.423Z,99.90
2023-05-22T01:34:55.510Z,99.90
2023-05-22T01:37:29.890Z,99.90
2023-05-22T01:39:58.987Z,99.90
2023-05-22T01:42:27.627Z,99.90
2023-05-22T01:44:55.952Z,99.90
2023-05-22T01:47:27.370Z,99.90
2023-05-22T01:49:55.925Z,99.90
2023-05-22T01:52:37.291Z,99.90
2023-05-22T01:55:14.582Z,99.90
2023-05-22T01:57:54.374Z,99.90
2023-05-22T02:00:23.506Z,99.90
2023-05-22T02:02:59.542Z,99.90
2023-05-22T02:05:35.711Z,99.90
2023-05-22T02:08:05.652Z,99.90
2023-05-22T02:10:36.479Z,99.90
2023-05-22T02:13:05.484Z,99.90
2023-05-22T02:15:34.413Z,99.90
2023-05-22T02:18:04.229Z,99.90
2023-05-22T02:20:32.527Z,99.90
2023-05-22T02:23:00.800Z,99.90
2023-05-22T02:25:31.228Z,99.90
2023-05-22T02:28:00.205Z,99.90
2023-05-22T02:30:28.527Z,99.90
2023-05-22T02:33:00.309Z,99.90
2023-05-22T02:35:34.266Z,99.90
2023-05-22T02:38:02.704Z,99.90
2023-05-22T02:40:34.026Z,99.90
2023-05-22T02:43:02.417Z,99.90
2023-05-22T02:45:30.978Z,99.90
2023-05-22T02:48:12.321Z,99.90
2023-05-22T02:50:45.261Z,99.90
2023-05-22T02:53:19.643Z,99.90
2023-05-22T02:55:48.543Z,99.90
2023-05-22T02:58:18.040Z,99.90
2023-05-22T03:00:46.558Z,99.90
2023-05-22T03:03:18.656Z,99.90
2023-05-22T03:05:48.445Z,99.90
2023-05-22T03:08:16.848Z,99.90
2023-05-22T03:10:45.065Z,99.90
2023-05-22T03:13:15.823Z,99.90
2023-05-22T03:15:44.233Z,99.90
2023-05-22T03:18:16.312Z,99.90
2023-05-22T03:20:45.495Z,99.90
2023-05-22T03:23:20.823Z,99.90
2023-05-22T03:25:49.348Z,99.90
2023-05-22T03:28:17.689Z,99.90
2023-05-22T03:30:47.938Z,99.90
2023-05-22T03:33:23.808Z,99.90
2023-05-22T03:35:58.028Z,99.90
2023-05-22T03:38:32.517Z,99.90
2023-05-22T03:41:00.692Z,99.90
2023-05-22T03:43:35.170Z,99.90
2023-05-22T03:46:05.996Z,99.90
2023-05-22T03:48:35.038Z,99.90
2023-05-22T03:51:03.290Z,99.90
2023-05-22T03:53:32.882Z,99.90
2023-05-22T03:56:01.127Z,99.90
2023-05-22T03:58:31.996Z,99.90
2023-05-22T04:01:02.250Z,99.90
2023-05-22T04:03:30.605Z,99.90
2023-05-22T04:05:59.063Z,99.90
2023-05-22T04:08:27.440Z,99.90
2023-05-22T04:11:00.004Z,99.90
2023-05-22T04:13:36.397Z,99.90
2023-05-22T04:16:10.982Z,99.90
2023-05-22T04:18:39.253Z,99.90
2023-05-22T04:21:10.570Z,99.90
2023-05-22T04:23:43.398Z,99.90
2023-05-22T04:26:13.365Z,99.90
2023-05-22T04:28:46.277Z,99.90
2023-05-22T04:31:14.806Z,99.90
2023-05-22T04:34:07.852Z,99.90
2023-05-22T04:36:36.143Z,99.90
2023-05-22T04:39:05.075Z,99.90
2023-05-22T04:41:34.648Z,99.90
2023-05-22T04:44:05.723Z,99.90
2023-05-22T04:46:34.520Z,99.90
2023-05-22T04:49:18.904Z,99.90
2023-05-22T04:51:47.182Z,99.90
2023-05-22T04:54:15.387Z,99.90
2023-05-22T04:56:47.267Z,99.90
2023-05-22T04:59:19.283Z,99.90
2023-05-22T05:01:47.962Z,99.90
2023-05-22T05:04:16.759Z,99.90
2023-05-22T05:06:45.178Z,99.90
2023-05-22T05:09:13.808Z,99.90
2023-05-22T05:11:44.453Z,99.90
2023-05-22T05:14:14.022Z,99.90
2023-05-22T05:16:42.365Z,99.90
2023-05-22T05:19:10.769Z,99.90
2023-05-22T05:21:39.580Z,99.90
2023-05-22T05:24:11.069Z,99.90
2023-05-22T05:26:39.453Z,99.90
2023-05-22T05:29:08.329Z,99.90
2023-05-22T05:31:47.335Z,99.90
2023-05-22T05:34:37.107Z,99.90
2023-05-22T05:37:09.062Z,99.90
2023-05-22T05:39:44.663Z,99.90
2023-05-22T05:42:15.989Z,99.90
2023-05-22T05:44:44.311Z,98.00
2023-05-22T05:47:15.058Z,95.50
2023-05-22T05:49:48.390Z,94.80
2023-05-22T05:52:17.514Z,92.40
2023-05-22T05:54:48.209Z,90.70
2023-05-22T05:57:22.737Z,90.40
2023-05-22T05:59:52.646Z,88.90
2023-05-22T06:02:50.659Z,88.00
2023-05-22T06:05:48.668Z,86.00
2023-05-22T06:08:28.701Z,84.40
2023-05-22T06:11:00.226Z,82.10
2023-05-22T06:13:36.585Z,78.80
2023-05-22T06:16:06.582Z,76.00
2023-05-22T06:18:53.888Z,75.20
2023-05-22T06:21:33.844Z,72.90
2023-05-22T06:24:04.342Z,70.30
2023-05-22T06:26:32.765Z,67.00
2023-05-22T06:29:00.952Z,65.00
2023-05-22T06:31:32.190Z,63.30
2023-05-22T06:34:01.856Z,62.60
2023-05-22T06:36:30.833Z,60.40
2023-05-22T06:38:59.799Z,59.10
2023-05-22T06:41:46.569Z,56.90
2023-05-22T06:44:15.710Z,56.70
2023-05-22T06:46:43.956Z,56.50
2023-05-22T06:49:20.903Z,56.00
2023-05-22T06:51:53.174Z,54.10
2023-05-22T06:54:22.399Z,53.10
2023-05-22T06:56:55.781Z,53.90
2023-05-22T06:59:26.371Z,52.20
2023-05-22T07:02:03.467Z,52.80
2023-05-22T07:04:52.476Z,52.30
2023-05-22T07:07:35.381Z,50.50
2023-05-22T07:10:04.227Z,49.00
2023-05-22T07:12:32.672Z,48.50
2023-05-22T07:15:01.762Z,48.60
2023-05-22T07:17:33.987Z,48.60
2023-05-22T07:20:06.939Z,48.60
2023-05-22T07:22:39.987Z,47.80
2023-05-22T07:25:08.958Z,47.90
2023-05-22T07:27:37.318Z,47.60
2023-05-22T07:30:06.649Z,47.60
2023-05-22T07:32:38.683Z,45.90
2023-05-22T07:35:11.921Z,46.20
2023-05-22T07:37:41.382Z,43.70
2023-05-22T07:40:12.482Z,43.70
2023-05-22T07:42:40.721Z,44.90
2023-05-22T07:45:12.252Z,44.10
2023-05-22T07:47:43.016Z,43.50
2023-05-22T07:50:13.095Z,43.60
2023-05-22T07:52:45.154Z,43.20
2023-05-22T07:55:13.447Z,42.20
2023-05-22T07:57:44.540Z,40.70
2023-05-22T08:00:22.124Z,41.70
2023-05-22T08:02:50.463Z,41.40
2023-05-22T08:05:20.185Z,41.20
2023-05-22T08:07:48.652Z,42.10
2023-05-22T08:10:18.883Z,42.90
2023-05-22T08:12:49.557Z,43.60
2023-05-22T08:15:17.746Z,43.90
2023-05-22T08:17:46.004Z,44.00
2023-05-22T08:20:14.686Z,44.20
2023-05-22T08:22:44.402Z,43.50
2023-05-22T08:25:12.707Z,44.60
2023-05-22T08:27:40.883Z,43.80
2023-05-22T08:30:10.100Z,42.90
2023-05-22T08:32:38.326Z,42.10
2023-05-22T08:35:07.321Z,42.10
2023-05-22T08:37:35.989Z,42.10
2023-05-22T08:40:06.638Z,41.90
2023-05-22T08:42:34.922Z,43.70
2023-05-22T08:45:03.395Z,42.00
2023-05-22T08:47:34.614Z,41.60
2023-05-22T08:50:03.267Z,43.60
2023-05-22T08:52:36.103Z,44.00
2023-05-22T08:55:06.960Z,45.20
2023-05-22T08:57:38.026Z,46.40
2023-05-22T09:00:07.934Z,46.40
2023-05-22T09:02:36.501Z,47.50
2023-05-22T09:05:06.059Z,48.10
2023-05-22T09:07:34.327Z,48.10
2023-05-22T09:10:05.452Z,49.00
2023-05-22T09:12:35.530Z,51.40
2023-05-22T09:15:11.362Z,52.40
2023-05-22T09:17:43.500Z,52.80
2023-05-22T09:20:15.820Z,53.30
2023-05-22T09:22:44.156Z,53.40
2023-05-22T09:25:20.020Z,53.20
2023-05-22T09:27:52.874Z,54.20
2023-05-22T09:30:21.557Z,54.60
2023-05-22T09:32:50.365Z,54.60
2023-05-22T09:35:20.256Z,55.40
2023-05-22T09:37:53.456Z,55.50
2023-05-22T09:40:30.330Z,55.80
2023-05-22T09:43:00.785Z,55.90
2023-05-22T09:45:36.030Z,56.20
2023-05-22T09:48:06.769Z,56.30
2023-05-22T09:50:35.046Z,57.40
2023-05-22T09:53:04.731Z,56.50
2023-05-22T09:55:34.830Z,55.50
2023-05-22T09:58:05.420Z,54.60
2023-05-22T10:00:36.692Z,55.20
2023-05-22T10:03:12.216Z,52.60
2023-05-22T10:05:52.446Z,53.50
2023-05-22T10:08:26.235Z,53.50
2023-05-22T10:10:58.606Z,53.20
2023-05-22T10:13:29.441Z,52.60
2023-05-22T10:15:58.681Z,52.60
2023-05-22T10:18:28.899Z,52.90
2023-05-22T10:20:58.603Z,53.30
2023-05-22T10:23:27.852Z,53.80
2023-05-22T10:25:57.039Z,53.00
2023-05-22T10:28:39.133Z,51.70
2023-05-22T10:31:15.818Z,52.00
2023-05-22T10:34:06.714Z,52.10
2023-05-22T10:36:48.151Z,51.30
2023-05-22T10:39:31.553Z,51.50
2023-05-22T10:42:01.012Z,51.80
2023-05-22T10:44:34.933Z,52.00
2023-05-22T10:47:11.675Z,52.50
2023-05-22T10:49:42.195Z,52.60
2023-05-22T10:52:11.446Z,52.70
2023-05-22T10:54:44.251Z,53.10
2023-05-22T10:57:16.063Z,52.30
2023-05-22T10:59:48.319Z,52.40
2023-05-22T11:02:29.560Z,51.10
2023-05-22T11:05:39.147Z,52.40
2023-05-22T11:08:28.965Z,51.70
2023-05-22T11:10:59.124Z,50.40
2023-05-22T11:13:29.591Z,50.20
2023-05-22T11:15:59.608Z,49.90
2023-05-22T11:18:30.594Z,49.40
2023-05-22T11:21:03.806Z,49.50
2023-05-22T11:23:36.701Z,50.00
2023-05-22T11:26:27.185Z,50.80
2023-05-22T11:29:00.763Z,50.40
2023-05-22T11:31:31.147Z,50.60
2023-05-22T11:33:59.474Z,50.80
2023-05-22T11:36:32.141Z,51.30
2023-05-22T11:39:01.711Z,50.30
2023-05-22T11:41:34.766Z,51.20
2023-05-22T11:44:03.345Z,51.50
2023-05-22T11:46:35.576Z,51.30
2023-05-22T11:49:04.263Z,51.70
2023-05-22T11:51:35.324Z,50.80
2023-05-22T11:54:03.596Z,51.60
2023-05-22T11:56:31.952Z,51.80
2023-05-22T11:59:00.360Z,52.50
2023-05-22T12:01:50.267Z,50.80
2023-05-22T12:04:18.886Z,51.30
2023-05-22T12:06:47.847Z,52.90
2023-05-22T12:09:18.589Z,52.20
2023-05-22T12:11:57.941Z,52.60
2023-05-22T12:14:42.191Z,52.40
2023-05-22T12:17:18.850Z,52.70
2023-05-22T12:19:48.412Z,53.70
2023-05-22T12:22:23.459Z,52.30
2023-05-22T12:24:58.200Z,52.70
2023-05-22T12:27:33.374Z,54.20
2023-05-22T12:30:18.130Z,53.40
2023-05-22T12:32:54.199Z,52.10
2023-05-22T12:35:23.542Z,53.40
2023-05-22T12:37:52.457Z,53.80
2023-05-22T12:40:22.310Z,53.60
2023-05-22T12:42:50.826Z,54.50
2023-05-22T12:45:27.911Z,54.70
2023-05-22T12:47:57.595Z,54.10
2023-05-22T12:50:25.978Z,53.00
2023-05-22T12:52:56.768Z,53.80
2023-05-22T12:55:25.073Z,54.50
2023-05-22T12:57:53.333Z,54.80
2023-05-22T13:00:22.045Z,54.70
2023-05-22T13:02:50.561Z,54.90
2023-05-22T13:05:22.826Z,54.70
2023-05-22T13:07:51.514Z,54.70
2023-05-22T13:10:20.217Z,55.30
2023-05-22T13:12:51.242Z,55.40
2023-05-22T13:15:19.691Z,55.70
2023-05-22T13:17:48.055Z,54.90
2023-05-22T13:20:16.410Z,55.30
2023-05-22T13:22:46.096Z,55.50
2023-05-22T13:25:14.505Z,55.30
2023-05-22T13:27:45.271Z,55.70
2023-05-22T13:30:14.062Z,56.00
2023-05-22T13:32:42.327Z,55.60
2023-05-22T13:35:11.229Z,55.00
2023-05-22T13:37:39.765Z,55.40
2023-05-22T13:40:10.551Z,56.20
2023-05-22T13:42:39.876Z,56.30
2023-05-22T13:45:09.491Z,57.10
2023-05-22T13:47:37.863Z,56.20
2023-05-22T13:50:07.045Z,56.50
2023-05-22T13:52:35.714Z,56.40
2023-05-22T13:55:04.313Z,56.10
2023-05-22T13:57:34.452Z,56.00
2023-05-22T14:00:05.599Z,56.20
2023-05-22T14:02:50.818Z,56.70
2023-05-22T14:05:19.364Z,56.30
2023-05-22T14:07:47.801Z,56.80
2023-05-22T14:10:16.118Z,56.20
2023-05-22T14:12:45.804Z,56.70
2023-05-22T14:15:16.145Z,57.30
2023-05-22T14:17:44.714Z,57.00
2023-05-22T14:20:13.132Z,56.70
2023-05-22T14:22:55.977Z,57.70
2023-05-22T14:25:26.331Z,57.20
2023-05-22T14:27:56.023Z,57.30
2023-05-22T14:30:24.420Z,57.40
2023-05-22T14:32:52.776Z,56.70
2023-05-22T14:35:21.049Z,57.10
2023-05-22T14:37:49.387Z,57.70
2023-05-22T14:40:17.733Z,58.00
2023-05-22T14:42:46.078Z,57.20
2023-05-22T14:45:16.118Z,57.80
2023-05-22T14:47:45.231Z,57.20
2023-05-22T14:50:19.056Z,57.20
2023-05-22T14:52:49.228Z,57.50
2023-05-22T14:55:18.285Z,57.70
2023-05-22T14:57:46.544Z,57.80
2023-05-22T15:00:17.357Z,57.70
2023-05-22T15:02:45.639Z,58.00
2023-05-22T15:05:13.993Z,58.20
2023-05-22T15:07:45.274Z,58.30
2023-05-22T15:10:14.105Z,58.30
2023-05-22T15:12:42.468Z,58.60
2023-05-22T15:15:11.327Z,58.50
2023-05-22T15:17:42.776Z,58.00
2023-05-22T15:20:12.507Z,58.00
2023-05-22T15:22:41.028Z,58.70
2023-05-22T15:25:15.960Z,58.70
2023-05-22T15:27:44.431Z,58.50
2023-05-22T15:30:13.183Z,58.00
2023-05-22T15:32:42.900Z,58.70
2023-05-22T15:35:13.975Z,58.30
2023-05-22T15:37:42.252Z,59.80
2023-05-22T15:40:12.515Z,58.90
2023-05-22T15:42:40.802Z,59.60
2023-05-22T15:45:10.239Z,61.50
2023-05-22T15:47:38.483Z,60.20
2023-05-22T15:50:08.801Z,59.20
2023-05-22T15:52:37.060Z,60.20
2023-05-22T15:55:05.850Z,59.30
2023-05-22T15:57:34.765Z,59.20
2023-05-22T16:00:03.138Z,59.40
2023-05-22T16:02:32.618Z,59.70
2023-05-22T16:05:00.935Z,59.50
2023-05-22T16:07:30.501Z,59.80
2023-05-22T16:09:58.720Z,59.70
2023-05-22T16:12:27.018Z,59.40
2023-05-22T16:15:00.413Z,59.60
2023-05-22T16:17:29.226Z,60.80
2023-05-22T16:19:57.551Z,60.40
2023-05-22T16:22:30.478Z,60.80
2023-05-22T16:25:07.355Z,59.80
2023-05-22T16:27:35.645Z,59.90
2023-05-22T16:30:04.512Z,60.40
2023-05-22T16:32:32.968Z,59.00
2023-05-22T16:35:01.384Z,60.00
2023-05-22T16:37:29.653Z,60.10
2023-05-22T16:40:00.419Z,59.60
2023-05-22T16:42:29.959Z,60.20
2023-05-22T16:44:58.182Z,60.10
2023-05-22T16:47:26.860Z,60.00
2023-05-22T16:49:55.192Z,60.50
2023-05-22T16:52:23.655Z,60.80
2023-05-22T16:54:51.845Z,60.80
2023-05-22T16:57:20.594Z,60.80
2023-05-22T16:59:50.486Z,61.10
2023-05-22T17:02:19.062Z,61.30
2023-05-22T17:04:47.476Z,61.80
2023-05-22T17:07:15.788Z,61.80
2023-05-22T17:09:44.026Z,62.20
2023-05-22T17:12:12.305Z,62.30
2023-05-22T17:14:40.558Z,62.50
2023-05-22T17:17:10.111Z,63.40
2023-05-22T17:19:38.918Z,63.40
2023-05-22T17:22:09.918Z,63.80
2023-05-22T17:24:40.164Z,63.50
2023-05-22T17:27:12.731Z,63.50
2023-05-22T17:29:45.377Z,63.80
2023-05-22T17:32:15.647Z,64.40
2023-05-22T17:34:44.075Z,64.50
2023-05-22T17:37:12.371Z,64.50
2023-05-22T17:39:40.663Z,64.80
2023-05-22T17:42:09.364Z,65.30
2023-05-22T17:44:37.772Z,65.60
2023-05-22T17:47:07.619Z,65.30
2023-05-22T17:49:43.390Z,64.80
2023-05-22T17:52:13.040Z,65.20
2023-05-22T17:54:41.306Z,65.40
2023-05-22T17:57:11.197Z,66.00
2023-05-22T17:59:40.563Z,66.20
2023-05-22T18:02:12.548Z,66.30
2023-05-22T18:04:49.135Z,66.40
2023-05-22T18:07:18.067Z,66.50
2023-05-22T18:09:46.286Z,67.60
2023-05-22T18:12:27.925Z,67.70
2023-05-22T18:14:59.966Z,67.50
2023-05-22T18:17:30.059Z,67.60
2023-05-22T18:20:00.614Z,67.70
2023-05-22T18:22:31.985Z,68.10
2023-05-22T18:25:00.289Z,68.40
2023-05-22T18:27:28.796Z,68.50
2023-05-22T18:29:56.975Z,69.00
2023-05-22T18:32:25.670Z,69.50
2023-05-22T18:34:58.612Z,70.90
2023-05-22T18:37:28.512Z,72.10
2023-05-22T18:39:56.845Z,73.30
2023-05-22T18:42:25.246Z,74.20
2023-05-22T18:44:53.548Z,74.60
2023-05-22T18:47:21.808Z,75.40
2023-05-22T18:49:50.089Z,76.00
2023-05-22T18:52:18.340Z,76.50
2023-05-22T18:54:47.976Z,76.40
2023-05-22T18:57:16.311Z,77.60
2023-05-22T18:59:46.237Z,78.50
2023-05-22T19:02:16.546Z,78.60
2023-05-22T19:04:44.838Z,79.40
2023-05-22T19:07:21.331Z,80.10
2023-05-22T19:09:51.457Z,81.00
2023-05-22T19:12:27.336Z,81.70
2023-05-22T19:14:58.416Z,82.10
2023-05-22T19:17:28.970Z,82.90
2023-05-22T19:19:57.167Z,83.60
2023-05-22T19:22:25.442Z,85.10
2023-05-22T19:25:21.183Z,84.90
2023-05-22T19:27:49.546Z,84.60
2023-05-22T19:30:19.016Z,84.90
2023-05-22T19:32:56.367Z,86.10
2023-05-22T19:35:24.640Z,86.20
2023-05-22T19:37:52.943Z,86.80
2023-05-22T19:40:28.722Z,87.60
2023-05-22T19:42:57.232Z,88.10
2023-05-22T19:45:25.998Z,89.10
2023-05-22T19:48:01.775Z,90.10
2023-05-22T19:50:35.525Z,90.50
2023-05-22T19:53:03.980Z,90.90
2023-05-22T19:55:43.874Z,91.30
2023-05-22T19:58:15.837Z,91.70
2023-05-22T20:00:44.275Z,92.40
2023-05-22T20:03:12.815Z,92.50
2023-05-22T20:05:42.716Z,93.00
2023-05-22T20:08:14.272Z,93.30
2023-05-22T20:10:47.553Z,93.90
2023-05-22T20:13:16.018Z,95.10
2023-05-22T20:15:47.831Z,95.70
2023-05-22T20:18:19.095Z,96.30
2023-05-22T20:20:47.362Z,97.20
2023-05-22T20:23:15.722Z,98.10
2023-05-22T20:25:45.642Z,99.10
2023-05-22T20:28:14.066Z,99.90
2023-05-22T20:30:42.334Z,99.90
2023-05-22T20:33:11.896Z,99.90
2023-05-22T20:35:40.794Z,99.90
2023-05-22T20:38:09.892Z,99.90
2023-05-22T20:40:38.329Z,99.90
2023-05-22T20:43:07.968Z,99.90
2023-05-22T20:45:37.588Z,99.90
2023-05-22T20:48:05.968Z,99.90
2023-05-22T20:50:39.733Z,99.90
2023-05-22T20:53:08.496Z,99.90
2023-05-22T20:55:37.166Z,99.90
2023-05-22T20:58:05.597Z,99.90
2023-05-22T21:00:35.348Z,99.90
2023-05-22T21:03:03.742Z,99.90
2023-05-22T21:05:32.044Z,99.90
2023-05-22T21:08:00.287Z,99.90
2023-05-22T21:10:28.480Z,99.90
2023-05-22T21:12:56.657Z,99.90
2023-05-22T21:15:24.919Z,99.90
2023-05-22T21:17:54.657Z,99.90
2023-05-22T21:20:23.035Z,99.90
2023-05-22T21:22:51.343Z,99.90
2023-05-22T21:25:22.693Z,99.90
2023-05-22T21:27:50.953Z,99.90
2023-05-22T21:30:19.576Z,99.90
2023-05-22T21:32:48.121Z,99.90
2023-05-22T21:35:17.937Z,99.90
2023-05-22T21:37:46.290Z,99.90
2023-05-22T21:40:14.871Z,99.90
2023-05-22T21:42:46.569Z,99.90
2023-05-22T21:45:15.992Z,99.90
2023-05-22T21:47:44.398Z,99.90
2023-05-22T21:50:15.171Z,99.90
2023-05-22T21:52:44.777Z,99.90
2023-05-22T21:55:13.156Z,99.90
2023-05-22T21:57:41.396Z,99.90
2023-05-22T22:00:10.723Z,99.90
2023-05-22T22:02:39.070Z,99.90
2023-05-22T22:05:08.006Z,99.90
2023-05-22T22:07:36.268Z,99.90
2023-05-22T22:10:06.836Z,99.90
2023-05-22T22:12:37.564Z,99.90
2023-05-22T22:15:06.613Z,99.90
2023-05-22T22:17:34.881Z,99.90
2023-05-22T22:20:03.298Z,99.90
2023-05-22T22:22:31.532Z,99.90
2023-05-22T22:25:03.191Z,99.90
2023-05-22T22:27:35.823Z,99.90
2023-05-22T22:30:04.930Z,99.90
2023-05-22T22:32:33.455Z,99.90
2023-05-22T22:35:01.772Z,99.90
2023-05-22T22:37:29.966Z,99.90
2023-05-22T22:39:58.292Z,99.90
2023-05-22T22:42:26.700Z,99.90
2023-05-22T22:44:56.273Z,99.90
2023-05-22T22:47:25.124Z,99.90
2023-05-22T22:49:53.758Z,99.90
2023-05-22T22:52:22.035Z,99.90
2023-05-22T22:54:50.356Z,99.90
2023-05-22T22:57:19.056Z,99.90
2023-05-22T22:59:47.328Z,99.90
2023-05-22T23:02:17.141Z,99.90
2023-05-22T23:04:45.654Z,99.90
2023-05-22T23:07:14.018Z,99.90
2023-05-22T23:09:42.334Z,99.90
2023-05-22T23:12:10.858Z,99.90
2023-05-22T23:14:39.109Z,99.90
2023-05-22T23:17:07.403Z,99.90
2023-05-22T23:19:36.915Z,99.90
2023-05-22T23:22:05.256Z,99.90
2023-05-22T23:24:33.509Z,99.90
2023-05-22T23:27:04.229Z,99.90
2023-05-22T23:29:32.529Z,99.90
2023-05-22T23:32:00.929Z,99.90
2023-05-22T23:34:29.322Z,99.90
2023-05-22T23:36:59.010Z,99.90
2023-05-22T23:39:27.493Z,99.90
2023-05-22T23:41:55.664Z,99.90
2023-05-22T23:44:26.081Z,99.90
2023-05-22T23:46:54.357Z,99.90
2023-05-22T23:49:22.771Z,99.90
2023-05-22T23:51:51.067Z,99.90
2023-05-22T23:54:20.897Z,99.90
2023-05-22T23:56:49.205Z,99.90
2023-05-22T23:59:17.507Z,99.90
